createdAt,value
2018-09-23T00:02:06.594Z,4.50
2018-09-23T00:04:34.868Z,4.20
2018-09-23T00:07:03.141Z,3.47
2018-09-23T00:09:31.395Z,3.40
2018-09-23T00:11:59.706Z,3.63
2018-09-23T00:14:27.943Z,3.83
2018-09-23T00:16:56.194Z,4.27
2018-09-23T00:19:24.484Z,3.77
2018-09-23T00:21:52.756Z,4.43
2018-09-23T00:24:21.012Z,3.40
2018-09-23T00:26:49.329Z,3.50
2018-09-23T00:29:22.996Z,3.50
2018-09-23T00:31:51.583Z,3.77
2018-09-23T00:34:19.902Z,4.17
2018-09-23T00:36:48.264Z,3.80
2018-09-23T00:39:16.547Z,3.60
2018-09-23T00:41:44.816Z,3.70
2018-09-23T00:44:13.118Z,3.40
2018-09-23T00:46:41.391Z,4.20
2018-09-23T00:49:09.653Z,3.70
2018-09-23T00:51:37.933Z,3.63
2018-09-23T00:54:06.272Z,2.90
2018-09-23T00:56:35.152Z,3.60
2018-09-23T00:59:03.414Z,3.20
2018-09-23T01:01:31.727Z,4.70
2018-09-23T01:04:00.007Z,4.87
2018-09-23T01:06:28.487Z,4.73
2018-09-23T01:08:56.898Z,5.07
2018-09-23T01:11:25.232Z,5.23
2018-09-23T01:13:53.512Z,4.10
2018-09-23T01:16:21.817Z,4.07
2018-09-23T01:18:50.244Z,4.43
2018-09-23T01:21:18.571Z,4.20
2018-09-23T01:23:46.835Z,4.17
2018-09-23T01:26:15.141Z,4.30
2018-09-23T01:28:43.386Z,3.90
2018-09-23T01:31:11.720Z,3.97
2018-09-23T01:33:40.002Z,3.70
2018-09-23T01:36:08.271Z,3.07
2018-09-23T01:38:36.559Z,3.30
2018-09-23T01:41:04.868Z,2.63
2018-09-23T01:43:33.212Z,3.20
2018-09-23T01:46:01.536Z,2.30
2018-09-23T01:48:29.788Z,2.07
2018-09-23T01:50:58.065Z,1.47
2018-09-23T01:53:26.331Z,2.10
2018-09-23T01:55:54.613Z,1.60
2018-09-23T01:58:22.924Z,1.10
2018-09-23T02:00:51.220Z,0.90
2018-09-23T02:03:19.494Z,1.27
2018-09-23T02:05:47.763Z,0.93
2018-09-23T02:08:16.013Z,1.30
2018-09-23T02:10:44.272Z,1.63
2018-09-23T02:13:12.552Z,1.30
2018-09-23T02:15:40.846Z,0.90
2018-09-23T02:18:09.151Z,1.17
2018-09-23T02:20:37.427Z,1.43
2018-09-23T02:23:05.702Z,1.23
2018-09-23T02:25:33.967Z,1.70
2018-09-23T02:28:02.315Z,1.50
2018-09-23T02:30:30.600Z,1.17
2018-09-23T02:32:58.878Z,1.87
2018-09-23T02:35:27.165Z,1.63
2018-09-23T02:37:55.804Z,1.47
2018-09-23T02:40:24.226Z,1.30
2018-09-23T02:42:52.511Z,1.30
2018-09-23T02:45:20.788Z,1.00
2018-09-23T02:47:49.047Z,1.20
2018-09-23T02:50:17.325Z,2.47
2018-09-23T02:52:45.626Z,1.30
2018-09-23T02:55:14.011Z,1.40
2018-09-23T02:57:42.286Z,0.83
2018-09-23T03:00:10.557Z,1.10
2018-09-23T03:02:38.833Z,1.60
2018-09-23T03:05:07.116Z,0.80
2018-09-23T03:07:35.434Z,1.20
2018-09-23T03:10:03.714Z,1.00
2018-09-23T03:12:31.983Z,1.40
2018-09-23T03:15:00.230Z,0.90
2018-09-23T03:17:28.528Z,1.03
2018-09-23T03:19:56.838Z,1.03
2018-09-23T03:22:25.103Z,0.90
2018-09-23T03:24:53.395Z,0.87
2018-09-23T03:27:21.658Z,1.43
2018-09-23T03:29:49.960Z,0.70
2018-09-23T03:32:18.276Z,1.60
2018-09-23T03:34:46.607Z,0.70
2018-09-23T03:37:14.900Z,0.67
2018-09-23T03:39:43.173Z,0.90
2018-09-23T03:42:11.479Z,0.80
2018-09-23T03:44:39.744Z,0.60
2018-09-23T03:47:08.006Z,1.00
2018-09-23T03:49:36.267Z,0.70
2018-09-23T03:52:04.595Z,0.90
2018-09-23T03:54:32.833Z,0.77
2018-09-23T03:57:01.122Z,0.83
2018-09-23T03:59:29.409Z,1.10
2018-09-23T04:01:57.696Z,0.73
2018-09-23T04:04:26.339Z,1.00
2018-09-23T04:06:55.197Z,0.90
2018-09-23T04:09:23.447Z,0.70
2018-09-23T04:11:51.815Z,0.70
2018-09-23T04:14:19.977Z,0.90
2018-09-23T04:16:48.256Z,0.60
2018-09-23T04:19:16.540Z,0.60
2018-09-23T04:21:44.794Z,0.60
2018-09-23T04:24:13.059Z,0.70
2018-09-23T04:26:41.331Z,0.87
2018-09-23T04:29:09.751Z,0.70
2018-09-23T04:31:38.002Z,0.70
2018-09-23T04:34:06.276Z,0.80
2018-09-23T04:36:34.534Z,0.60
2018-09-23T04:39:02.811Z,0.70
2018-09-23T04:41:31.075Z,0.90
2018-09-23T04:43:59.312Z,0.63
2018-09-23T04:46:27.582Z,0.60
2018-09-23T04:48:55.908Z,0.60
2018-09-23T04:51:24.167Z,0.67
2018-09-23T04:53:52.478Z,0.63
2018-09-23T04:56:20.763Z,0.90
2018-09-23T04:58:49.019Z,0.53
2018-09-23T05:01:17.254Z,0.73
2018-09-23T05:03:45.532Z,0.60
2018-09-23T05:06:13.815Z,0.70
2018-09-23T05:08:42.044Z,0.70
2018-09-23T05:11:10.324Z,0.60
2018-09-23T05:13:38.605Z,0.70
2018-09-23T05:16:06.935Z,0.60
2018-09-23T05:18:35.193Z,0.63
2018-09-23T05:21:03.469Z,0.60
2018-09-23T05:23:31.745Z,0.57
2018-09-23T05:26:00.029Z,0.60
2018-09-23T05:28:28.326Z,0.50
2018-09-23T05:30:56.771Z,0.60
2018-09-23T05:33:25.020Z,0.50
2018-09-23T05:35:53.324Z,0.60
2018-09-23T05:38:21.580Z,0.50
2018-09-23T05:40:49.870Z,0.50
2018-09-23T05:43:18.195Z,0.60
2018-09-23T05:45:46.455Z,0.60
2018-09-23T05:48:14.715Z,0.50
2018-09-23T05:50:42.955Z,0.60
2018-09-23T05:53:11.326Z,0.60
2018-09-23T05:55:39.516Z,0.53
2018-09-23T05:58:08.182Z,0.57
2018-09-23T06:00:42.474Z,0.50
2018-09-23T06:03:10.848Z,0.60
2018-09-23T06:05:38.985Z,0.60
2018-09-23T06:08:07.271Z,0.50
2018-09-23T06:10:35.830Z,0.60
2018-09-23T06:13:04.086Z,0.53
2018-09-23T06:15:32.638Z,0.60
2018-09-23T06:18:00.920Z,0.50
2018-09-23T06:20:30.114Z,0.50
2018-09-23T06:22:58.357Z,0.50
2018-09-23T06:25:26.619Z,0.50
2018-09-23T06:27:55.654Z,0.60
2018-09-23T06:30:23.919Z,0.60
2018-09-23T06:32:52.553Z,0.50
2018-09-23T06:35:20.808Z,0.50
2018-09-23T06:37:49.058Z,0.50
2018-09-23T06:40:17.340Z,0.60
2018-09-23T06:42:45.651Z,0.50
2018-09-23T06:45:13.999Z,0.50
2018-09-23T06:47:42.215Z,0.50
2018-09-23T06:50:10.643Z,0.50
2018-09-23T06:52:38.903Z,0.50
2018-09-23T06:55:07.197Z,0.60
2018-09-23T06:57:35.752Z,0.50
2018-09-23T07:00:04.111Z,0.50
2018-09-23T07:02:32.395Z,0.50
2018-09-23T07:05:01.009Z,0.50
2018-09-23T07:07:29.250Z,0.50
2018-09-23T07:09:57.517Z,0.50
2018-09-23T07:12:25.860Z,0.50
2018-09-23T07:14:54.276Z,0.50
2018-09-23T07:17:22.501Z,0.60
2018-09-23T07:19:50.745Z,0.53
2018-09-23T07:22:19.023Z,0.50
2018-09-23T07:24:47.325Z,0.60
2018-09-23T07:27:15.576Z,0.60
2018-09-23T07:29:43.865Z,0.50
2018-09-23T07:32:12.155Z,0.50
2018-09-23T07:34:40.407Z,0.50
2018-09-23T07:37:08.663Z,0.70
2018-09-23T07:39:36.946Z,0.50
2018-09-23T07:42:05.156Z,0.60
2018-09-23T07:44:33.395Z,0.60
2018-09-23T07:47:01.654Z,0.60
2018-09-23T07:49:29.950Z,0.50
2018-09-23T07:51:58.227Z,0.50
2018-09-23T07:54:26.570Z,0.50
2018-09-23T07:56:54.859Z,0.60
2018-09-23T07:59:23.763Z,0.50
2018-09-23T08:01:52.019Z,0.60
2018-09-23T08:04:20.285Z,0.50
2018-09-23T08:06:48.572Z,0.60
2018-09-23T08:09:16.858Z,0.60
2018-09-23T08:11:45.082Z,0.60
2018-09-23T08:14:14.013Z,0.50
2018-09-23T08:16:41.747Z,0.70
2018-09-23T08:19:10.067Z,0.60
2018-09-23T08:21:38.388Z,0.50
2018-09-23T08:24:06.763Z,0.60
2018-09-23T08:26:35.193Z,0.60
2018-09-23T08:29:03.405Z,0.60
2018-09-23T08:31:31.811Z,0.60
2018-09-23T08:34:00.253Z,0.50
2018-09-23T08:36:28.624Z,0.60
2018-09-23T08:38:57.053Z,0.60
2018-09-23T08:41:25.481Z,0.60
2018-09-23T08:43:53.940Z,0.53
2018-09-23T08:46:22.462Z,0.60
2018-09-23T08:48:51.109Z,0.60
2018-09-23T08:51:19.663Z,0.70
2018-09-23T08:53:48.154Z,0.80
2018-09-23T08:56:16.785Z,0.53
2018-09-23T08:58:46.313Z,0.60
2018-09-23T09:01:14.791Z,0.60
2018-09-23T09:03:43.306Z,0.50
2018-09-23T09:06:12.157Z,0.50
2018-09-23T09:08:40.480Z,0.50
2018-09-23T09:11:08.830Z,0.67
2018-09-23T09:13:37.188Z,0.60
2018-09-23T09:16:05.679Z,0.50
2018-09-23T09:18:34.186Z,0.57
2018-09-23T09:21:02.743Z,0.50
2018-09-23T09:23:31.172Z,0.50
2018-09-23T09:25:59.553Z,0.50
2018-09-23T09:28:27.828Z,0.57
2018-09-23T09:30:56.132Z,0.50
2018-09-23T09:33:24.517Z,0.60
2018-09-23T09:35:52.759Z,0.63
2018-09-23T09:38:21.071Z,0.60
2018-09-23T09:40:49.359Z,0.50
2018-09-23T09:43:17.633Z,0.50
2018-09-23T09:45:45.976Z,0.50
2018-09-23T09:48:16.295Z,0.57
2018-09-23T09:50:44.546Z,0.60
2018-09-23T09:53:12.858Z,0.60
2018-09-23T09:55:41.172Z,0.50
2018-09-23T09:58:09.499Z,0.50
2018-09-23T10:00:37.761Z,0.50
2018-09-23T10:03:07.356Z,0.50
2018-09-23T10:05:35.728Z,0.50
2018-09-23T10:08:04.089Z,0.63
2018-09-23T10:10:32.382Z,0.50
2018-09-23T10:13:00.689Z,0.50
2018-09-23T10:15:29.079Z,0.50
2018-09-23T10:17:57.334Z,0.50
2018-09-23T10:20:25.598Z,0.50
2018-09-23T10:22:54.048Z,0.57
2018-09-23T10:25:22.451Z,0.50
2018-09-23T10:27:50.743Z,0.50
2018-09-23T10:30:19.034Z,0.60
2018-09-23T10:32:47.417Z,0.60
2018-09-23T10:35:15.676Z,0.67
2018-09-23T10:37:43.942Z,0.60
2018-09-23T10:40:12.238Z,0.50
2018-09-23T10:42:40.499Z,0.93
2018-09-23T10:45:08.775Z,0.57
2018-09-23T10:47:37.035Z,0.60
2018-09-23T10:50:05.382Z,0.50
2018-09-23T10:52:33.659Z,0.50
2018-09-23T10:55:01.895Z,0.50
2018-09-23T10:57:30.248Z,0.50
2018-09-23T10:59:58.547Z,0.50
2018-09-23T11:02:27.031Z,0.60
2018-09-23T11:04:55.370Z,0.60
2018-09-23T11:07:23.650Z,0.60
2018-09-23T11:09:53.887Z,0.60
2018-09-23T11:12:22.084Z,0.73
2018-09-23T11:14:50.375Z,0.60
2018-09-23T11:17:18.679Z,0.70
2018-09-23T11:19:46.910Z,0.83
2018-09-23T11:22:15.181Z,0.97
2018-09-23T11:24:43.483Z,0.70
2018-09-23T11:27:11.858Z,0.70
2018-09-23T11:29:40.087Z,0.70
2018-09-23T11:32:08.327Z,0.80
2018-09-23T11:34:36.569Z,0.60
2018-09-23T11:37:04.882Z,0.60
2018-09-23T11:39:33.211Z,0.60
2018-09-23T11:42:01.741Z,0.60
2018-09-23T11:44:30.029Z,0.60
2018-09-23T11:46:58.287Z,0.80
2018-09-23T11:49:26.552Z,0.70
2018-09-23T11:51:54.824Z,0.70
2018-09-23T11:54:23.085Z,0.70
2018-09-23T11:56:51.390Z,0.90
2018-09-23T11:59:19.632Z,0.70
2018-09-23T12:01:47.943Z,0.60
2018-09-23T12:04:16.259Z,1.33
2018-09-23T12:06:44.496Z,0.60
2018-09-23T12:09:13.561Z,0.60
2018-09-23T12:11:42.377Z,0.60
2018-09-23T12:14:11.307Z,0.60
2018-09-23T12:16:39.817Z,0.60
2018-09-23T12:19:08.108Z,0.50
2018-09-23T12:21:36.412Z,0.60
2018-09-23T12:24:04.663Z,0.60
2018-09-23T12:26:32.914Z,0.67
2018-09-23T12:29:01.264Z,0.70
2018-09-23T12:31:29.602Z,0.73
2018-09-23T12:33:57.933Z,0.60
2018-09-23T12:36:26.187Z,0.60
2018-09-23T12:38:54.552Z,0.90
2018-09-23T12:41:22.813Z,0.70
2018-09-23T12:43:51.159Z,0.90
2018-09-23T12:46:19.428Z,0.60
2018-09-23T12:48:49.183Z,0.60
2018-09-23T12:51:17.557Z,0.50
2018-09-23T12:53:45.833Z,0.60
2018-09-23T12:56:14.123Z,0.80
2018-09-23T12:58:42.439Z,0.80
2018-09-23T13:01:11.890Z,0.60
2018-09-23T13:03:40.129Z,0.80
2018-09-23T13:06:08.399Z,0.60
2018-09-23T13:08:36.645Z,0.90
2018-09-23T13:11:04.979Z,0.67
2018-09-23T13:13:33.265Z,0.70
2018-09-23T13:16:01.588Z,0.60
2018-09-23T13:18:29.837Z,0.60
2018-09-23T13:20:58.134Z,0.60
2018-09-23T13:23:26.419Z,0.70
2018-09-23T13:25:54.670Z,0.73
2018-09-23T13:28:22.933Z,0.80
2018-09-23T13:30:51.593Z,0.60
2018-09-23T13:33:20.006Z,0.60
2018-09-23T13:35:48.385Z,0.70
2018-09-23T13:38:16.841Z,0.60
2018-09-23T13:40:45.129Z,0.70
2018-09-23T13:43:13.400Z,0.70
2018-09-23T13:45:41.698Z,0.70
2018-09-23T13:48:11.448Z,0.73
2018-09-23T13:50:40.076Z,0.80
2018-09-23T13:53:09.584Z,0.60
2018-09-23T13:55:39.754Z,0.60
2018-09-23T13:58:10.912Z,0.60
2018-09-23T14:00:42.491Z,0.80
2018-09-23T14:03:22.144Z,1.00
2018-09-23T14:05:53.087Z,0.60
2018-09-23T14:08:21.964Z,0.60
2018-09-23T14:10:52.537Z,0.60
2018-09-23T14:13:23.436Z,0.77
2018-09-23T14:15:53.564Z,0.60
2018-09-23T14:18:22.227Z,0.80
2018-09-23T14:20:52.276Z,0.80
2018-09-23T14:23:20.738Z,0.67
2018-09-23T14:25:49.148Z,0.83
2018-09-23T14:28:17.523Z,1.07
2018-09-23T14:30:46.117Z,0.80
2018-09-23T14:33:15.127Z,1.27
2018-09-23T14:35:43.472Z,1.27
2018-09-23T14:38:11.905Z,0.97
2018-09-23T14:40:40.318Z,0.93
2018-09-23T14:43:08.633Z,1.03
2018-09-23T14:45:36.887Z,1.50
2018-09-23T14:48:05.265Z,0.80
2018-09-23T14:50:33.975Z,1.63
2018-09-23T14:53:02.669Z,1.67
2018-09-23T14:55:33.069Z,1.80
2018-09-23T14:58:01.908Z,0.80
2018-09-23T15:00:30.667Z,1.17
2018-09-23T15:02:59.196Z,1.63
2018-09-23T15:05:27.873Z,0.80
2018-09-23T15:07:56.348Z,1.10
2018-09-23T15:10:24.804Z,0.87
2018-09-23T15:12:56.982Z,1.77
2018-09-23T15:15:25.353Z,1.50
2018-09-23T15:17:53.714Z,1.20
2018-09-23T15:20:22.030Z,1.20
2018-09-23T15:22:50.308Z,1.10
2018-09-23T15:25:18.597Z,1.00
2018-09-23T15:27:46.900Z,0.87
2018-09-23T15:30:15.251Z,0.90
2018-09-23T15:32:43.536Z,1.17
2018-09-23T15:35:11.973Z,1.07
2018-09-23T15:37:40.296Z,1.10
2018-09-23T15:40:08.666Z,1.03
2018-09-23T15:42:36.972Z,1.87
2018-09-23T15:45:05.409Z,1.43
2018-09-23T15:47:33.834Z,0.80
2018-09-23T15:50:02.111Z,1.57
2018-09-23T15:52:30.443Z,1.53
2018-09-23T15:54:58.738Z,0.90
2018-09-23T15:57:27.102Z,1.00
2018-09-23T15:59:55.379Z,1.00
2018-09-23T16:02:23.686Z,1.70
2018-09-23T16:04:52.081Z,0.93
2018-09-23T16:07:20.664Z,1.03
2018-09-23T16:09:49.029Z,1.03
2018-09-23T16:12:17.302Z,0.87
2018-09-23T16:14:45.940Z,1.47
2018-09-23T16:17:14.220Z,1.20
2018-09-23T16:19:56.033Z,1.10
2018-09-23T16:22:25.562Z,1.20
2018-09-23T16:24:54.074Z,1.07
2018-09-23T16:27:22.709Z,1.57
2018-09-23T16:29:51.016Z,1.40
2018-09-23T16:32:19.278Z,1.10
2018-09-23T16:34:47.547Z,1.23
2018-09-23T16:37:16.254Z,0.97
2018-09-23T16:39:44.800Z,1.20
2018-09-23T16:42:13.099Z,1.87
2018-09-23T16:44:41.557Z,1.00
2018-09-23T16:47:09.864Z,2.33
2018-09-23T16:49:38.134Z,2.50
2018-09-23T16:52:06.423Z,2.30
2018-09-23T16:54:34.913Z,1.90
2018-09-23T16:57:03.114Z,2.33
2018-09-23T16:59:31.427Z,1.30
2018-09-23T17:01:59.702Z,1.50
2018-09-23T17:04:27.995Z,0.90
2018-09-23T17:06:56.489Z,0.90
2018-09-23T17:09:24.798Z,1.50
2018-09-23T17:11:53.232Z,0.90
2018-09-23T17:14:21.920Z,0.87
2018-09-23T17:16:50.332Z,1.33
2018-09-23T17:19:18.880Z,1.47
2018-09-23T17:21:47.407Z,1.23
2018-09-23T17:24:16.008Z,0.93
2018-09-23T17:26:44.471Z,1.10
2018-09-23T17:29:12.856Z,1.10
2018-09-23T17:31:41.192Z,0.80
2018-09-23T17:34:09.459Z,1.03
2018-09-23T17:36:37.946Z,1.33
2018-09-23T17:39:08.863Z,1.27
2018-09-23T17:41:37.178Z,0.90
2018-09-23T17:44:07.737Z,1.07
2018-09-23T17:46:36.411Z,1.03
2018-09-23T17:49:05.140Z,1.30
2018-09-23T17:51:33.931Z,1.23
2018-09-23T17:54:02.924Z,1.77
2018-09-23T17:56:31.748Z,1.37
2018-09-23T17:59:00.105Z,1.43
2018-09-23T18:01:28.445Z,1.20
2018-09-23T18:03:56.814Z,1.10
2018-09-23T18:06:25.090Z,0.80
2018-09-23T18:08:53.578Z,1.60
2018-09-23T18:11:22.279Z,0.83
2018-09-23T18:13:50.616Z,1.20
2018-09-23T18:16:18.911Z,1.10
2018-09-23T18:18:47.191Z,0.60
2018-09-23T18:21:15.455Z,0.67
2018-09-23T18:23:44.865Z,0.97
2018-09-23T18:26:13.886Z,1.90
2018-09-23T18:28:42.273Z,1.60
2018-09-23T18:31:10.598Z,1.80
2018-09-23T18:33:39.911Z,1.20
2018-09-23T18:36:08.227Z,2.20
2018-09-23T18:38:36.499Z,2.20
2018-09-23T18:41:04.799Z,1.03
2018-09-23T18:43:34.475Z,1.77
2018-09-23T18:46:08.229Z,1.97
2018-09-23T18:48:36.826Z,1.77
2018-09-23T18:51:09.955Z,1.87
2018-09-23T18:53:39.804Z,2.27
2018-09-23T18:56:08.308Z,1.80
2018-09-23T18:58:36.828Z,2.33
2018-09-23T19:01:05.183Z,2.10
2018-09-23T19:03:34.037Z,2.90
2018-09-23T19:06:02.508Z,2.50
2018-09-23T19:08:30.760Z,2.00
2018-09-23T19:11:01.369Z,1.50
2018-09-23T19:13:34.945Z,1.83
2018-09-23T19:16:08.602Z,2.10
2018-09-23T19:18:36.858Z,1.47
2018-09-23T19:21:05.129Z,2.30
2018-09-23T19:23:33.402Z,1.70
2018-09-23T19:26:01.760Z,1.90
2018-09-23T19:28:30.024Z,1.60
2018-09-23T19:30:58.298Z,2.10
2018-09-23T19:33:26.557Z,5.10
2018-09-23T19:35:54.791Z,1.27
2018-09-23T19:38:23.139Z,1.33
2018-09-23T19:40:51.470Z,1.00
2018-09-23T19:43:19.704Z,1.53
2018-09-23T19:45:47.978Z,1.20
2018-09-23T19:48:16.417Z,1.87
2018-09-23T19:50:44.681Z,1.37
2018-09-23T19:53:13.079Z,1.23
2018-09-23T19:55:41.348Z,1.30
2018-09-23T19:58:09.666Z,0.93
2018-09-23T20:00:37.976Z,0.90
2018-09-23T20:03:06.255Z,1.40
2018-09-23T20:05:34.524Z,1.60
2018-09-23T20:08:02.877Z,1.17
2018-09-23T20:10:31.559Z,0.90
2018-09-23T20:12:59.844Z,1.00
2018-09-23T20:15:28.186Z,1.00
2018-09-23T20:17:56.445Z,0.70
2018-09-23T20:20:24.662Z,0.87
2018-09-23T20:22:53.121Z,1.00
2018-09-23T20:25:21.376Z,1.20
2018-09-23T20:27:49.639Z,0.80
2018-09-23T20:30:17.967Z,0.97
2018-09-23T20:32:46.317Z,1.30
2018-09-23T20:35:14.552Z,0.90
2018-09-23T20:37:42.876Z,0.80
2018-09-23T20:40:11.099Z,1.00
2018-09-23T20:42:39.381Z,0.70
2018-09-23T20:45:07.654Z,1.00
2018-09-23T20:47:35.887Z,2.10
2018-09-23T20:50:04.426Z,1.30
2018-09-23T20:52:32.714Z,1.80
2018-09-23T20:55:01.007Z,1.93
2018-09-23T20:57:29.376Z,1.67
2018-09-23T20:59:57.729Z,0.80
2018-09-23T21:02:25.970Z,1.50
2018-09-23T21:04:54.215Z,1.23
2018-09-23T21:07:22.492Z,1.10
2018-09-23T21:09:50.803Z,1.77
2018-09-23T21:12:19.076Z,1.10
2018-09-23T21:14:47.406Z,1.50
2018-09-23T21:17:15.653Z,1.50
2018-09-23T21:19:43.927Z,2.30
2018-09-23T21:22:12.879Z,1.60
2018-09-23T21:24:41.115Z,2.60
2018-09-23T21:27:09.588Z,2.57
2018-09-23T21:29:38.226Z,1.50
2018-09-23T21:32:06.632Z,1.97
2018-09-23T21:34:34.912Z,2.10
2018-09-23T21:37:03.181Z,2.77
2018-09-23T21:39:31.473Z,1.63
2018-09-23T21:41:59.682Z,1.60
2018-09-23T21:44:27.964Z,1.77
2018-09-23T21:46:56.194Z,1.90
2018-09-23T21:49:24.833Z,1.50
2018-09-23T21:51:53.088Z,0.97
2018-09-23T21:54:21.339Z,2.47
2018-09-23T21:56:49.595Z,1.17
2018-09-23T21:59:17.850Z,2.20
2018-09-23T22:01:46.125Z,1.63
2018-09-23T22:04:14.433Z,1.67
2018-09-23T22:06:42.684Z,2.33
2018-09-23T22:09:10.981Z,2.20
2018-09-23T22:11:39.249Z,2.80
2018-09-23T22:14:07.479Z,2.43
2018-09-23T22:16:35.767Z,1.80
2018-09-23T22:19:03.997Z,2.40
2018-09-23T22:21:32.268Z,2.10
2018-09-23T22:24:00.514Z,2.23
2018-09-23T22:26:28.760Z,1.90
2018-09-23T22:28:57.021Z,1.77
2018-09-23T22:31:25.285Z,2.10
2018-09-23T22:33:53.516Z,1.90
2018-09-23T22:36:21.770Z,1.90
2018-09-23T22:38:50.076Z,1.60
2018-09-23T22:41:18.297Z,2.73
2018-09-23T22:43:46.595Z,1.70
2018-09-23T22:46:14.860Z,1.87
2018-09-23T22:48:43.163Z,2.07
2018-09-23T22:51:11.431Z,2.77
2018-09-23T22:53:39.677Z,2.10
2018-09-23T22:56:07.922Z,2.80
2018-09-23T22:58:36.194Z,1.63
2018-09-23T23:01:04.470Z,2.20
2018-09-23T23:03:32.749Z,2.60
2018-09-23T23:06:01.007Z,1.87
2018-09-23T23:08:29.282Z,1.70
2018-09-23T23:10:57.545Z,1.73
2018-09-23T23:13:25.804Z,2.63
2018-09-23T23:15:54.032Z,2.30
2018-09-23T23:18:22.348Z,2.80
2018-09-23T23:20:50.638Z,2.43
2018-09-23T23:23:18.907Z,2.40
2018-09-23T23:25:47.135Z,1.73
2018-09-23T23:28:15.413Z,1.50
2018-09-23T23:30:43.690Z,1.20
2018-09-23T23:33:11.969Z,1.73
2018-09-23T23:35:40.255Z,1.57
2018-09-23T23:38:08.578Z,2.30
2018-09-23T23:40:36.819Z,2.00
2018-09-23T23:43:05.140Z,1.80
2018-09-23T23:45:33.419Z,2.60
2018-09-23T23:48:01.664Z,1.70
2018-09-23T23:50:29.922Z,2.03
2018-09-23T23:52:58.178Z,2.33
2018-09-23T23:55:26.400Z,2.00
2018-09-23T23:57:54.659Z,1.37
